Aérodrome :
LOGIN :

S'inscrire | Disclaimer

   EN    FR    IT 

 










Légende :    VFR   VFR Marginal   IFR   IFR Intensif   IFR Très Intensif
Visi : 
Plafond : 
>= 8 km
>= 3000ft
5 à 8 km
1000 à 3000 ft
1500m à 5 km
500 à 1000 ft
800 à 1500m
200 à 500 ft
< 800m
< 200 ft
Symboles :   Orages  Brouillard  Fortes neiges  Fortes précipitations  Vent > 20 kt
SIGMETs :   Divers  Orages  Givrage  Turbulence  Onde Orograph.  Cendres Volcan.







- Altitude de l'aérodrome : 844 ft
- Code IATA : OSR


LKMT - Ostrava-Mosnov

DERNIER METAR :
  • 241000Z 23005KT 190V250 9999 SCT037 19/11 Q1016 NOSIG

METARs EXPIRÉS :
  • 240930Z 18004KT 140V280 9999 SCT037 19/11 Q1016 NOSIG
  • 240900Z VRB03KT 9999 SCT032 19/09 Q1017 NOSIG
  • 240830Z VRB03KT 9999 FEW028 18/10 Q1017 NOSIG
  • 240800Z VRB02KT 9999 FEW025 18/09 Q1017 NOSIG
  • 240730Z VRB02KT 9999 FEW018 16/12 Q1017 NOSIG

TAF TAF LKMT
Valide du 24 à 06h jusqu'au 25 à 12h UTC


240500Z 2406/2512 21006KT CAVOK
PROB40
TEMPO 2408/2418 24013G23KT 9000 -SHRA SCT025TCU
BECMG 2508/2510 21014G28KT
Pas de NOTAMs connus pour ce terrain.



MET'MAP, la Météo Aéronautique d'un coup d'oeil ! - Copyright ORBIFLY Décembre 2007 - Disclaimer

ORBIFLY MET'MAP TEAM :

Programmation & Développement : Alexandra Zaïnal
Conception & Développement : Baudouin d'Aumeries
Co-Programmation & Développement : Marc-Olivier Méhu
Soutien technique & logistique : Manuel Goepfert

Contact : metmap@orbifly.com




SOURCES & CREDITS :

   NOAA